Airfield :







YOU CAN JOIN US ON...

 
LOGIN :

Register | Disclaimer

   EN    FR    IT 

 









Legend :    VFR   Marginal VFR   IFR   Intensive IFR   Very Intensive IFR
Visi :
Ceiling :
>= 8 km
>= 3000ft
5 to 8 km
1000 to 3000 ft
1500m to 5 km
500 to 1000 ft
800 to 1500m
200 to 500 ft
< 800m
< 200 ft
Symbols :   Thunderstorms  Fog  Heavy snow  Heavy precipitations  Wind > 20 kt






- Airport Elevation : 244 ft
- IATA code : YQB


CYQB - Quebec - Jean Lesage Int.

CURRENT METAR :
  • 162100Z 26011KT 30SM FEW040 M07/M14 A3052 RMK SC1 SC TR SLP342

EXPIRED METARs :
  • 162000Z 24012KT 30SM FEW050 M06/M14 A3051 RMK SC1 SC TR SLP341
  • 161900Z 23011G17KT 30SM FEW050 M06/M14 A3050 RMK SC1 SLP336
  • 161800Z 24014KT 30SM FEW050 M06/M14 A3050 RMK SC1 SLP336

TAF TAF CYQB
Valid from the 16 at 18:00 until the 17 at 18:00 UTC


161738Z 1618/1718 24010G20KT P6SM FEW050
BECMG 1622/1624 27008KT
FM171200 03005KT P6SM BKN180 RMK NXT FCST BY 170000Z
ATIS : ENG : +1 418-871-6893 FRA : +1 418-871-6895



MET'MAP, your aeronautical weather chart ! - Copyright ORBIFLY December 2007 - Disclaimer

ORBIFLY MET'MAP TEAM :

Programming & Development : Alexandra Zaïnal
Concept & Development : Baudouin d'Aumeries
Co-Development & Prog : Marc-Olivier Méhu
Technical & hardware support : Manuel Goepfert

Contact : metmap@orbifly.com




SOURCES & CREDITS :

   NOAA